Aeroporto :
LOGIN :

Iscrizione | Disclaimer

   EN    FR    IT 

 










Sommario :    VFR   VFR Marginale   IFR   IFR Intensivo   IFR Molto Intensivo
Visibilità : 
Base nubi : 
>= 8 km
>= 3000ft
5 / 8 km
1000 / 3000 ft
1500m / 5 km
500 / 1000 ft
800 / 1500m
200 / 500 ft
< 800m
< 200 ft
Simboli :   Temporali  Nebbia  Neve Forte  Precipitazioni Forti  Vento > 20 kt
SIGMETs :   Varie  Temporali  Ghiacco  Turbolenza  Onda orograficha  Ceneri Vulcaniche






- Altitudine del aeroporto : 123 ft
- Codice IATA : BLQ


LIPE - Bologna Guglielmo Marconi

ULTIMO METAR :
  • 221620Z VRB01KT CAVOK 13/04 Q1030

METARs OBSOLETI :
  • 221550Z VRB02KT CAVOK 13/04 Q1031
  • 221520Z 02003KT 320V080 CAVOK 14/05 Q1031
  • 221450Z VRB03KT 8000 NSC 14/05 Q1031
  • 221420Z 03003KT 320V060 7000 NSC 14/05 Q1031
  • 221350Z VRB03KT 7000 NSC 14/05 Q1031

TAF TAF LIPE
Valido dal 22 a 12 ore il 23 a 12 ore UTC


221100Z 2212/2312 28006KT CAVOK
TEMPO 2300/2308 3000 BR



MetMap, La meteo Aeronautica in un colpo d'occhio ! - Copyright ORBIFLY Dicembre 2007 - Disclaimer

ORBIFLY MET'MAP TEAM :

Programmazione e sviluppo : Alexandra Zaïnal
Concezione : Baudouin d'Aumeries
Aiuto per la programmazione : Marc-Olivier Méhu
Supporto tecnico e logistico : Manuel Goepfert
Aiuto per la traduzione : Arnaldo La Scala

Contatto : metmap@orbifly.com




FONTI E CREDITI :

   NOAA